createdAt,value
2022-12-01T00:01:57.029Z,18.40
2022-12-01T00:04:58.944Z,16.98
2022-12-01T00:08:00.900Z,16.83
2022-12-01T00:11:08.339Z,17.70
2022-12-01T00:14:10.206Z,20.15
2022-12-01T00:17:12.042Z,19.65
2022-12-01T00:20:14.959Z,18.65
2022-12-01T00:26:20.334Z,17.27
2022-12-01T00:29:22.185Z,17.25
2022-12-01T00:32:24.850Z,19.60
2022-12-01T00:35:26.746Z,23.88
2022-12-01T00:38:29.094Z,20.58
2022-12-01T00:41:30.940Z,19.83
2022-12-01T00:44:32.809Z,22.85
2022-12-01T00:47:34.662Z,19.10
2022-12-01T00:50:36.628Z,22.13
2022-12-01T00:53:38.547Z,22.02
2022-12-01T00:56:40.449Z,24.88
2022-12-01T00:59:42.471Z,20.90
2022-12-01T01:02:44.665Z,25.05
2022-12-01T01:05:46.622Z,20.17
2022-12-01T01:08:48.532Z,22.40
2022-12-01T01:11:50.436Z,25.88
2022-12-01T01:14:52.286Z,21.25
2022-12-01T01:17:54.718Z,24.38
2022-12-01T01:21:01.927Z,23.75
2022-12-01T01:24:04.025Z,24.08
2022-12-01T01:27:05.941Z,21.90
2022-12-01T01:30:08.553Z,24.77
2022-12-01T01:33:10.409Z,24.40
2022-12-01T01:36:12.758Z,25.98
2022-12-01T01:39:17.080Z,24.38
2022-12-01T01:42:20.365Z,27.25
2022-12-01T01:45:24.739Z,23.90
2022-12-01T01:48:26.618Z,24.30
2022-12-01T01:51:38.798Z,26.48
2022-12-01T01:54:44.160Z,26.98
2022-12-01T01:57:46.722Z,27.08
2022-12-01T02:00:48.683Z,22.77
2022-12-01T02:03:53.492Z,23.77
2022-12-01T02:06:55.646Z,22.15
2022-12-01T02:09:57.802Z,20.95
2022-12-01T02:13:08.440Z,26.73
2022-12-01T02:16:18.563Z,25.83
2022-12-01T02:19:39.338Z,22.65
2022-12-01T02:23:07.057Z,23.52
2022-12-01T02:26:29.863Z,24.20
2022-12-01T02:30:02.454Z,24.67
2022-12-01T02:33:07.461Z,24.00
2022-12-01T02:36:18.471Z,26.00
2022-12-01T02:39:49.374Z,23.98
2022-12-01T02:43:18.550Z,24.77
2022-12-01T02:46:35.561Z,26.88
2022-12-01T02:49:43.744Z,24.02
2022-12-01T02:52:45.760Z,21.58
2022-12-01T02:55:52.215Z,23.92
2022-12-01T02:58:54.155Z,21.58
2022-12-01T03:02:33.683Z,20.55
2022-12-01T03:05:45.720Z,22.85
2022-12-01T03:09:25.003Z,22.63
2022-12-01T03:15:56.867Z,15.48
2022-12-01T03:19:28.848Z,21.30
2022-12-01T03:22:40.131Z,20.08
2022-12-01T03:25:47.065Z,17.40
2022-12-01T03:29:00.399Z,18.90
2022-12-01T03:32:20.563Z,16.98
2022-12-01T03:35:38.122Z,19.50
2022-12-01T03:38:43.998Z,18.80
2022-12-01T03:41:51.598Z,18.75
2022-12-01T03:44:56.756Z,17.98
2022-12-01T03:47:58.929Z,18.80
2022-12-01T03:51:19.119Z,17.95
2022-12-01T03:54:48.637Z,17.50
2022-12-01T03:58:17.148Z,20.05
2022-12-01T04:01:19.193Z,18.40
2022-12-01T04:04:21.200Z,18.42
2022-12-01T04:07:23.377Z,20.98
2022-12-01T04:10:25.280Z,20.65
2022-12-01T04:13:27.176Z,22.35
2022-12-01T04:16:29.057Z,18.52
2022-12-01T04:19:31.012Z,19.98
2022-12-01T04:22:33.689Z,21.35
2022-12-01T04:25:35.828Z,20.00
2022-12-01T04:28:37.746Z,19.67
2022-12-01T04:31:40.251Z,24.67
2022-12-01T04:34:42.358Z,18.42
2022-12-01T04:37:44.231Z,21.52
2022-12-01T04:40:46.117Z,19.02
2022-12-01T04:43:47.973Z,20.70
2022-12-01T04:46:52.037Z,19.42
2022-12-01T04:49:53.877Z,21.33
2022-12-01T04:52:55.747Z,18.75
2022-12-01T04:55:59.153Z,18.08
2022-12-01T04:59:03.553Z,19.55
2022-12-01T05:02:05.504Z,19.17
2022-12-01T05:05:07.776Z,17.92
2022-12-01T05:08:09.810Z,18.05
2022-12-01T05:11:13.322Z,21.00
2022-12-01T05:14:15.194Z,22.20
2022-12-01T05:17:17.130Z,18.02
2022-12-01T05:20:22.256Z,16.08
2022-12-01T05:23:29.382Z,18.63
2022-12-01T05:26:31.221Z,17.77
2022-12-01T05:29:33.276Z,17.70
2022-12-01T05:32:35.214Z,17.15
2022-12-01T05:35:37.179Z,18.90
2022-12-01T05:38:39.122Z,18.80
2022-12-01T05:41:41.179Z,15.63
2022-12-01T05:44:43.096Z,16.98
2022-12-01T05:47:44.928Z,17.35
2022-12-01T05:50:46.985Z,17.02
2022-12-01T05:53:49.615Z,16.98
2022-12-01T05:56:51.453Z,14.93
2022-12-01T05:59:53.305Z,20.35
2022-12-01T06:02:55.286Z,15.88
2022-12-01T06:05:59.392Z,17.25
2022-12-01T06:09:03.603Z,18.00
2022-12-01T06:12:05.664Z,16.85
2022-12-01T06:15:08.575Z,18.92
2022-12-01T06:18:10.557Z,17.58
2022-12-01T06:21:12.538Z,15.52
2022-12-01T06:24:14.553Z,15.15
2022-12-01T06:27:16.474Z,14.85
2022-12-01T06:30:18.356Z,13.52
2022-12-01T06:33:20.193Z,16.70
2022-12-01T06:36:22.103Z,16.40
2022-12-01T06:39:23.957Z,15.35
2022-12-01T06:42:28.809Z,18.27
2022-12-01T06:45:31.541Z,17.27
2022-12-01T06:48:33.601Z,17.58
2022-12-01T06:51:35.511Z,17.90
2022-12-01T06:54:37.512Z,17.25
2022-12-01T06:57:39.691Z,17.23
2022-12-01T07:00:41.648Z,14.55
2022-12-01T07:03:46.932Z,18.95
2022-12-01T07:06:48.859Z,21.63
2022-12-01T07:09:50.964Z,23.35
2022-12-01T07:12:53.027Z,20.52
2022-12-01T07:15:55.047Z,19.00
2022-12-01T07:18:57.021Z,16.88
2022-12-01T07:21:58.871Z,16.75
2022-12-01T07:25:00.740Z,18.67
2022-12-01T07:28:02.677Z,20.02
2022-12-01T07:31:08.872Z,17.25
2022-12-01T07:34:13.647Z,18.45
2022-12-01T07:37:15.566Z,17.17
2022-12-01T07:40:17.527Z,16.65
2022-12-01T07:43:19.425Z,17.10
2022-12-01T07:46:24.702Z,18.08
2022-12-01T07:49:26.767Z,15.85
2022-12-01T07:52:28.596Z,20.17
2022-12-01T07:55:30.515Z,15.70
2022-12-01T07:58:32.744Z,16.95
2022-12-01T08:01:34.633Z,16.60
2022-12-01T08:04:36.572Z,15.80
2022-12-01T08:07:38.463Z,17.35
2022-12-01T08:10:40.727Z,17.00
2022-12-01T08:13:43.325Z,16.95
2022-12-01T08:16:45.213Z,15.43
2022-12-01T08:19:47.251Z,19.00
2022-12-01T08:22:49.312Z,17.15
2022-12-01T08:25:51.321Z,16.60
2022-12-01T08:28:53.566Z,19.08
2022-12-01T08:31:58.396Z,18.85
2022-12-01T08:35:00.203Z,17.70
2022-12-01T08:38:02.142Z,19.45
2022-12-01T08:41:08.730Z,15.05
2022-12-01T08:44:11.136Z,17.63
2022-12-01T08:47:17.259Z,17.38
2022-12-01T08:50:20.659Z,16.70
2022-12-01T08:53:22.545Z,19.65
2022-12-01T08:56:26.390Z,17.80
2022-12-01T08:59:28.344Z,16.25
2022-12-01T09:02:30.228Z,16.15
2022-12-01T09:05:32.177Z,16.30
2022-12-01T09:08:36.992Z,15.70
2022-12-01T09:11:40.030Z,16.73
2022-12-01T09:14:43.753Z,17.60
2022-12-01T09:17:48.527Z,17.55
2022-12-01T09:20:50.547Z,17.38
2022-12-01T09:23:53.437Z,18.00
2022-12-01T09:26:57.120Z,17.83
2022-12-01T09:29:58.955Z,17.35
2022-12-01T09:33:00.824Z,18.50
2022-12-01T09:36:04.268Z,17.92
2022-12-01T09:39:08.184Z,17.25
2022-12-01T09:42:16.516Z,15.82
2022-12-01T09:45:32.556Z,16.05
2022-12-01T09:48:54.022Z,20.58
2022-12-01T09:51:55.988Z,23.83
2022-12-01T09:55:00.510Z,20.10
2022-12-01T09:58:04.941Z,21.40
2022-12-01T10:01:10.576Z,18.65
2022-12-01T10:04:16.519Z,20.65
2022-12-01T10:07:27.144Z,24.02
2022-12-01T10:10:37.760Z,17.73
2022-12-01T10:13:39.627Z,18.05
2022-12-01T10:17:03.061Z,21.90
2022-12-01T10:20:15.337Z,18.30
2022-12-01T10:23:37.411Z,16.83
2022-12-01T10:26:55.667Z,17.55
2022-12-01T10:30:09.977Z,14.93
2022-12-01T10:33:25.455Z,18.40
2022-12-01T10:36:28.814Z,19.38
2022-12-01T10:39:40.718Z,18.45
2022-12-01T10:42:52.087Z,18.13
2022-12-01T10:45:55.002Z,18.70
2022-12-01T10:52:02.700Z,19.30
2022-12-01T10:55:29.112Z,16.02
2022-12-01T10:58:34.399Z,18.35
2022-12-01T11:01:36.476Z,18.25
2022-12-01T11:04:43.023Z,19.48
2022-12-01T11:07:47.387Z,21.90
2022-12-01T11:10:50.260Z,23.02
2022-12-01T11:13:52.345Z,18.55
2022-12-01T11:16:54.223Z,19.00
2022-12-01T11:19:56.606Z,21.38
2022-12-01T11:23:24.296Z,21.48
2022-12-01T11:26:33.375Z,19.55
2022-12-01T11:32:39.986Z,20.73
2022-12-01T11:35:47.971Z,20.27
2022-12-01T11:38:50.761Z,21.02
2022-12-01T11:41:59.494Z,20.05
2022-12-01T11:45:13.393Z,19.33
2022-12-01T11:48:25.920Z,20.17
2022-12-01T12:03:36.126Z,19.55
2022-12-01T12:07:05.729Z,19.60
2022-12-01T12:10:39.286Z,20.60
2022-12-01T12:14:10.435Z,24.63
2022-12-01T12:17:44.136Z,18.73
2022-12-01T12:21:01.497Z,20.52
2022-12-01T12:24:41.664Z,19.85
2022-12-01T12:27:43.460Z,20.48
2022-12-01T12:31:11.238Z,27.65
2022-12-01T12:34:19.271Z,20.98
2022-12-01T12:37:58.824Z,22.17
2022-12-01T12:41:45.080Z,20.08
2022-12-01T12:44:51.484Z,19.48
2022-12-01T12:48:20.740Z,20.17
2022-12-01T12:51:34.834Z,17.85
2022-12-01T12:55:13.297Z,22.38
2022-12-01T12:58:18.603Z,17.15
2022-12-01T13:01:46.317Z,18.83
2022-12-01T13:05:01.133Z,19.08
2022-12-01T13:08:10.843Z,21.90
2022-12-01T13:11:27.507Z,21.17
2022-12-01T13:15:00.876Z,21.35
2022-12-01T13:18:19.953Z,20.08
2022-12-01T13:21:22.918Z,23.33
2022-12-01T13:27:34.115Z,17.98
2022-12-01T13:30:36.013Z,19.92
2022-12-01T13:33:42.504Z,19.70
2022-12-01T13:36:49.786Z,18.60
2022-12-01T13:39:54.516Z,21.83
2022-12-01T13:43:13.684Z,16.95
2022-12-01T13:46:49.519Z,17.27
2022-12-01T13:49:52.928Z,18.60
2022-12-01T13:53:10.820Z,15.07
2022-12-01T13:56:15.683Z,19.15
2022-12-01T13:59:39.441Z,20.48
2022-12-01T14:02:41.494Z,19.30
2022-12-01T14:05:50.979Z,19.40
2022-12-01T14:09:04.478Z,16.98
2022-12-01T14:12:22.076Z,18.95
2022-12-01T14:15:30.129Z,20.48
2022-12-01T14:18:34.901Z,18.23
2022-12-01T14:21:43.106Z,17.80
2022-12-01T14:24:52.788Z,17.58
2022-12-01T14:27:57.856Z,19.15
2022-12-01T14:31:03.768Z,16.77
2022-12-01T14:34:17.326Z,19.35
2022-12-01T14:37:24.799Z,18.38
2022-12-01T14:40:29.863Z,17.85
2022-12-01T14:43:31.967Z,15.45
2022-12-01T14:46:48.839Z,19.30
2022-12-01T14:50:01.821Z,18.88
2022-12-01T14:53:11.227Z,20.73
2022-12-01T14:56:17.152Z,18.42
2022-12-01T14:59:24.166Z,19.17
2022-12-01T15:02:27.063Z,19.80
2022-12-01T15:12:01.572Z,18.00
2022-12-01T15:15:23.693Z,19.13
2022-12-01T15:18:36.765Z,21.50
2022-12-01T15:21:38.687Z,21.73
2022-12-01T15:24:41.572Z,24.85
2022-12-01T15:27:43.619Z,20.98
2022-12-01T15:30:52.914Z,21.33
2022-12-01T15:33:56.107Z,18.88
2022-12-01T15:40:54.195Z,19.13
2022-12-01T15:43:39.698Z,25.73
2022-12-01T15:46:41.641Z,20.98
2022-12-01T15:49:50.357Z,19.73
2022-12-01T15:52:52.645Z,18.80
2022-12-01T15:55:59.020Z,21.23
2022-12-01T15:59:21.288Z,18.65
2022-12-01T16:02:31.189Z,18.45
2022-12-01T16:05:35.874Z,19.30
2022-12-01T16:08:38.023Z,21.95
2022-12-01T16:11:40.055Z,19.13
2022-12-01T16:14:55.896Z,18.90
2022-12-01T16:17:59.040Z,18.90
2022-12-01T16:21:05.490Z,19.52
2022-12-01T16:24:13.197Z,23.02
2022-12-01T16:27:30.075Z,20.95
2022-12-01T16:30:39.729Z,20.58
2022-12-01T16:33:41.839Z,17.85
2022-12-01T16:36:43.842Z,19.30
2022-12-01T16:39:46.028Z,18.85
2022-12-01T16:42:48.089Z,20.85
2022-12-01T16:45:51.408Z,20.15
2022-12-01T16:48:53.295Z,20.75
2022-12-01T16:51:56.903Z,19.38
2022-12-01T16:54:59.356Z,20.42
2022-12-01T16:58:01.347Z,17.67
2022-12-01T17:01:05.474Z,21.10
2022-12-01T17:04:07.968Z,17.35
2022-12-01T17:07:09.880Z,17.55
2022-12-01T17:10:12.226Z,18.60
2022-12-01T17:13:14.440Z,17.95
2022-12-01T17:16:18.763Z,21.40
2022-12-01T17:19:20.977Z,25.27
2022-12-01T17:22:23.048Z,22.88
2022-12-01T17:25:27.243Z,20.90
2022-12-01T17:28:29.260Z,21.52
2022-12-01T17:31:31.285Z,22.20
2022-12-01T17:34:33.276Z,18.67
2022-12-01T17:37:35.314Z,20.15
2022-12-01T17:40:37.200Z,26.20
2022-12-01T17:43:39.727Z,23.02
2022-12-01T17:46:41.890Z,21.48
2022-12-01T17:49:43.819Z,27.13
2022-12-01T17:52:46.419Z,20.40
2022-12-01T17:55:48.285Z,23.17
2022-12-01T17:58:50.265Z,25.25
2022-12-01T18:01:52.214Z,22.70
2022-12-01T18:04:54.587Z,23.65
2022-12-01T18:07:56.650Z,25.00
2022-12-01T18:11:04.176Z,25.52
2022-12-01T18:14:06.051Z,22.52
2022-12-01T18:17:12.497Z,23.65
2022-12-01T18:20:15.389Z,26.63
2022-12-01T18:23:17.265Z,26.77
2022-12-01T18:26:20.327Z,26.70
2022-12-01T18:29:22.284Z,23.27
2022-12-01T18:32:24.149Z,25.23
2022-12-01T18:35:31.597Z,26.13
2022-12-01T18:38:34.126Z,25.85
2022-12-01T18:41:37.183Z,30.80
2022-12-01T18:44:39.084Z,27.00
2022-12-01T18:47:40.961Z,27.40
2022-12-01T18:50:42.811Z,28.88
2022-12-01T18:53:47.543Z,34.28
2022-12-01T18:56:54.294Z,27.58
2022-12-01T18:59:56.259Z,30.30
2022-12-01T19:02:58.471Z,28.75
2022-12-01T19:06:06.075Z,28.75
2022-12-01T19:09:10.853Z,29.20
2022-12-01T19:12:12.895Z,28.08
2022-12-01T19:15:14.791Z,28.90
2022-12-01T19:18:17.049Z,31.77
2022-12-01T19:21:20.469Z,35.33
2022-12-01T19:24:22.566Z,30.00
2022-12-01T19:27:24.959Z,29.08
2022-12-01T19:30:26.921Z,27.52
2022-12-01T19:33:28.884Z,27.92
2022-12-01T19:36:31.017Z,26.70
2022-12-01T19:39:33.039Z,29.77
2022-12-01T19:42:34.956Z,29.20
2022-12-01T19:45:38.360Z,31.60
2022-12-01T19:48:40.864Z,29.02
2022-12-01T19:51:42.887Z,31.70
2022-12-01T19:54:44.783Z,33.92
2022-12-01T19:57:50.846Z,31.23
2022-12-01T20:00:52.779Z,27.52
2022-12-01T20:03:55.350Z,32.78
2022-12-01T20:06:57.260Z,31.77
2022-12-01T20:09:59.151Z,28.42
2022-12-01T20:13:01.171Z,29.90
2022-12-01T20:16:12.060Z,31.23
2022-12-01T20:19:14.030Z,31.05
2022-12-01T20:22:18.421Z,33.83
2022-12-01T20:25:20.461Z,29.98
2022-12-01T20:28:22.404Z,31.58
2022-12-01T20:31:27.226Z,31.52
2022-12-01T20:34:34.573Z,32.58
2022-12-01T20:37:36.511Z,33.45
2022-12-01T20:40:38.509Z,29.67
2022-12-01T20:43:40.524Z,32.30
2022-12-01T20:46:43.126Z,28.33
2022-12-01T20:49:45.523Z,32.20
2022-12-01T20:52:47.342Z,29.10
2022-12-01T20:55:51.739Z,29.98
2022-12-01T20:58:53.616Z,31.33
2022-12-01T21:01:55.721Z,29.98
2022-12-01T21:04:59.159Z,30.75
2022-12-01T21:08:02.350Z,29.88
2022-12-01T21:14:24.341Z,34.75
2022-12-01T21:17:34.806Z,35.10
2022-12-01T21:20:39.814Z,34.75
2022-12-01T21:23:42.068Z,38.22
2022-12-01T21:27:02.182Z,30.60
2022-12-01T21:30:14.660Z,32.17
2022-12-01T21:33:22.205Z,29.90
2022-12-01T21:36:28.807Z,33.17
2022-12-01T21:39:30.791Z,32.15
2022-12-01T21:42:32.797Z,36.15
2022-12-01T21:45:34.704Z,35.30
2022-12-01T21:48:37.334Z,33.30
2022-12-01T21:51:39.264Z,32.55
2022-12-01T21:54:41.267Z,31.95
2022-12-01T21:57:53.974Z,32.97
2022-12-01T22:00:59.545Z,35.97
2022-12-01T22:04:10.903Z,37.17
2022-12-01T22:07:15.182Z,36.00
2022-12-01T22:10:54.498Z,44.55
2022-12-01T22:14:08.738Z,37.35
2022-12-01T22:17:18.962Z,35.35
2022-12-01T22:20:22.596Z,35.58
2022-12-01T22:23:32.397Z,38.22
2022-12-01T22:26:39.868Z,35.53
2022-12-01T22:29:47.168Z,36.53
2022-12-01T22:33:02.417Z,38.50
2022-12-01T22:36:23.045Z,34.80
2022-12-01T22:39:33.889Z,39.33
2022-12-01T22:42:35.987Z,40.42
2022-12-01T22:45:38.738Z,33.00
2022-12-01T22:49:05.506Z,34.72
2022-12-01T22:52:18.752Z,37.72
2022-12-01T22:55:20.731Z,37.63
2022-12-01T22:58:30.299Z,35.33
2022-12-01T23:01:34.039Z,40.30
2022-12-01T23:04:41.428Z,38.33
2022-12-01T23:07:43.992Z,41.83
2022-12-01T23:10:45.978Z,36.63
2022-12-01T23:13:47.893Z,37.13
2022-12-01T23:16:56.576Z,34.38
2022-12-01T23:20:08.343Z,36.60
2022-12-01T23:23:32.877Z,39.92
2022-12-01T23:26:34.681Z,42.67
2022-12-01T23:29:37.148Z,39.50
2022-12-01T23:32:39.260Z,39.65
2022-12-01T23:36:01.355Z,35.95
2022-12-01T23:39:10.722Z,34.80
2022-12-01T23:42:13.053Z,39.45
2022-12-01T23:45:21.487Z,38.40
2022-12-01T23:48:27.299Z,37.58
2022-12-01T23:51:32.744Z,37.45
2022-12-01T23:54:37.813Z,38.95
2022-12-01T23:57:39.726Z,32.80
